www.cux-wetter.de
Wetterdaten: Montag, 01.06.2015
Datum Zeit Temp. A. Feuchte A. Luftdruck Regen Wind Richtung Richtung Sonnenschein Solar Taupunkt Windchill Windben
01.06.2015 00:15 11,6 C 95 % 1004,5 hPa 0,3 l/m 28,6 km/h (5 Bft) N-NW 340 0 min 0 W/m 10,8 C 3,2 C 28,6 km/h (5 Bft)
01.06.2015 00:29 11,6 C 95 % 1004,5 hPa 0,0 l/m 34,1 km/h (5 Bft) N-NW 340 0 min 0 W/m 10,8 C 2,2 C 34,1 km/h (5 Bft)
01.06.2015 00:45 11,6 C 95 % 1004,5 hPa 0,0 l/m 32,9 km/h (5 Bft) NW 325 0 min 0 W/m 10,8 C 2,4 C 32,9 km/h (5 Bft)
01.06.2015 01:00 11,6 C 95 % 1004,5 hPa 0,6 l/m 26,1 km/h (4 Bft) N-NW 335 0 min 0 W/m 10,8 C 3,7 C 26,1 km/h (4 Bft)
01.06.2015 01:15 11,6 C 95 % 1005,5 hPa 0,6 l/m 28,8 km/h (5 Bft) N-NW 335 0 min 0 W/m 10,8 C 3,1 C 28,8 km/h (5 Bft)
01.06.2015 01:30 11,6 C 95 % 1005,5 hPa 0,9 l/m 28,4 km/h (5 Bft) NW 315 0 min 0 W/m 10,8 C 3,2 C 28,4 km/h (5 Bft)
01.06.2015 01:45 11,6 C 95 % 1005,5 hPa 0,6 l/m 33,0 km/h (5 Bft) N-NW 345 0 min 0 W/m 10,8 C 2,3 C 33,0 km/h (5 Bft)
01.06.2015 02:00 11,6 C 95 % 1005,5 hPa 0,6 l/m 30,8 km/h (5 Bft) NW 325 0 min 0 W/m 10,8 C 2,8 C 30,8 km/h (5 Bft)
01.06.2015 02:15 11,6 C 95 % 1006,5 hPa 0,3 l/m 31,7 km/h (5 Bft) NW 320 0 min 0 W/m 10,8 C 2,6 C 31,7 km/h (5 Bft)
01.06.2015 02:30 11,6 C 95 % 1006,5 hPa 0,3 l/m 36,3 km/h (5 Bft) N-NW 335 0 min 0 W/m 10,8 C 1,8 C 36,3 km/h (5 Bft)
01.06.2015 02:44 11,6 C 95 % 1006,5 hPa 0,0 l/m 28,7 km/h (5 Bft) N-NW 335 0 min 0 W/m 10,8 C 3,2 C 28,7 km/h (5 Bft)
01.06.2015 03:00 11,6 C 95 % 1006,5 hPa 0,0 l/m 28,0 km/h (5 Bft) N-NW 330 0 min 0 W/m 10,8 C 3,3 C 28,0 km/h (5 Bft)
01.06.2015 03:15 11,6 C 95 % 1007,5 hPa 0,0 l/m 31,7 km/h (5 Bft) N-NW 330 0 min 0 W/m 10,8 C 2,6 C 31,7 km/h (5 Bft)
01.06.2015 03:30 11,6 C 95 % 1007,5 hPa 0,0 l/m 31,3 km/h (5 Bft) N-NW 335 0 min 0 W/m 10,8 C 2,7 C 31,3 km/h (5 Bft)
01.06.2015 03:45 11,6 C 95 % 1007,5 hPa 0,0 l/m 27,5 km/h (5 Bft) N-NW 330 0 min 0 W/m 10,8 C 3,4 C 27,5 km/h (5 Bft)
01.06.2015 04:00 11,6 C 95 % 1007,5 hPa 0,0 l/m 30,2 km/h (5 Bft) NW 320 0 min 0 W/m 10,8 C 2,9 C 30,2 km/h (5 Bft)
01.06.2015 04:14 11,6 C 95 % 1008,5 hPa 0,0 l/m 29,5 km/h (5 Bft) N-NW 335 0 min 0 W/m 10,8 C 3,0 C 29,5 km/h (5 Bft)
01.06.2015 04:30 11,6 C 95 % 1008,5 hPa 0,0 l/m 24,8 km/h (4 Bft) N-NW 340 0 min 0 W/m 10,8 C 4,0 C 24,8 km/h (4 Bft)
01.06.2015 04:45 11,6 C 95 % 1008,5 hPa 0,0 l/m 21,8 km/h (4 Bft) N-NW 340 0 min 0 W/m 10,8 C 4,8 C 21,8 km/h (4 Bft)
01.06.2015 04:59 11,6 C 95 % 1008,5 hPa 0,0 l/m 29,1 km/h (5 Bft) N-NW 340 0 min 0 W/m 10,8 C 3,1 C 29,1 km/h (5 Bft)
01.06.2015 05:15 11,6 C 95 % 1008,5 hPa 0,0 l/m 25,6 km/h (4 Bft) N-NW 340 0 min 0 W/m 10,8 C 3,9 C 25,6 km/h (4 Bft)
01.06.2015 05:30 11,6 C 95 % 1009,5 hPa 0,0 l/m 25,1 km/h (4 Bft) NW 325 0 min 0 W/m 10,8 C 4,0 C 25,1 km/h (4 Bft)
01.06.2015 05:45 11,6 C 95 % 1009,5 hPa 0,0 l/m 21,8 km/h (4 Bft) NW 320 0 min 0 W/m 10,8 C 4,8 C 21,8 km/h (4 Bft)
01.06.2015 06:00 11,6 C 95 % 1009,5 hPa 0,0 l/m 23,0 km/h (4 Bft) NW 325 0 min 0 W/m 10,8 C 4,5 C 23,0 km/h (4 Bft)
01.06.2015 06:15 11,6 C 95 % 1009,5 hPa 0,0 l/m 21,8 km/h (4 Bft) NW 320 0 min 0 W/m 10,8 C 4,8 C 21,8 km/h (4 Bft)
01.06.2015 06:29 11,6 C 95 % 1010,5 hPa 0,0 l/m 23,3 km/h (4 Bft) NW 320 0 min 0 W/m 10,8 C 4,4 C 23,3 km/h (4 Bft)
01.06.2015 06:45 11,6 C 95 % 1010,5 hPa 0,0 l/m 26,1 km/h (4 Bft) W-NW 300 0 min 0 W/m 10,8 C 3,7 C 26,1 km/h (4 Bft)
01.06.2015 07:00 11,6 C 95 % 1010,5 hPa 0,0 l/m 24,0 km/h (4 Bft) NW 315 0 min 0 W/m 10,8 C 4,2 C 24,0 km/h (4 Bft)
01.06.2015 07:15 11,6 C 95 % 1010,5 hPa 0,0 l/m 20,2 km/h (4 Bft) NW 320 0 min 0 W/m 10,8 C 5,3 C 20,2 km/h (4 Bft)
01.06.2015 07:30 11,6 C 95 % 1011,5 hPa 0,0 l/m 31,2 km/h (5 Bft) NW 325 0 min 0 W/m 10,8 C 2,7 C 31,2 km/h (5 Bft)
01.06.2015 07:45 11,6 C 95 % 1011,5 hPa 0,0 l/m 24,5 km/h (4 Bft) NW 320 0 min 0 W/m 10,8 C 4,1 C 24,5 km/h (4 Bft)
01.06.2015 08:00 11,6 C 95 % 1011,5 hPa 0,0 l/m 24,0 km/h (4 Bft) N-NW 335 0 min 0 W/m 10,8 C 4,2 C 24,0 km/h (4 Bft)
01.06.2015 08:15 11,6 C 95 % 1011,5 hPa 0,0 l/m 26,3 km/h (4 Bft) N-NW 330 0 min 0 W/m 10,8 C 3,7 C 26,3 km/h (4 Bft)
01.06.2015 08:30 11,6 C 95 % 1011,5 hPa 0,0 l/m 27,1 km/h (5 Bft) NW 325 0 min 0 W/m 10,8 C 3,5 C 27,1 km/h (5 Bft)
01.06.2015 08:45 11,6 C 95 % 1012,5 hPa 0,0 l/m 29,1 km/h (5 Bft) NW 320 0 min 0 W/m 10,8 C 3,1 C 29,1 km/h (5 Bft)
01.06.2015 09:00 11,6 C 95 % 1012,5 hPa 0,0 l/m 34,8 km/h (5 Bft) N-NW 330 0 min 0 W/m 10,8 C 2,0 C 34,8 km/h (5 Bft)
01.06.2015 09:14 11,6 C 95 % 1012,5 hPa 0,0 l/m 30,8 km/h (5 Bft) NW 325 0 min 0 W/m 10,8 C 2,8 C 30,8 km/h (5 Bft)
01.06.2015 09:30 11,6 C 95 % 1012,5 hPa 0,0 l/m 28,0 km/h (5 Bft) N-NW 330 0 min 0 W/m 10,8 C 3,3 C 28,0 km/h (5 Bft)
01.06.2015 09:45 11,6 C 95 % 1013,5 hPa 0,0 l/m 29,6 km/h (5 Bft) NW 320 0 min 0 W/m 10,8 C 3,0 C 29,6 km/h (5 Bft)
01.06.2015 09:59 11,6 C 95 % 1013,5 hPa 0,0 l/m 25,0 km/h (4 Bft) NW 305 0 min 0 W/m 10,8 C 4,0 C 25,0 km/h (4 Bft)
01.06.2015 10:15 11,6 C 95 % 1013,5 hPa 0,0 l/m 28,5 km/h (5 Bft) NW 325 0 min 0 W/m 10,8 C 3,2 C 28,5 km/h (5 Bft)
01.06.2015 10:30 11,6 C 95 % 1013,5 hPa 0,0 l/m 26,1 km/h (4 Bft) N-NW 330 0 min 0 W/m 10,8 C 3,7 C 26,1 km/h (4 Bft)
01.06.2015 10:45 11,6 C 95 % 1013,5 hPa 0,0 l/m 25,8 km/h (4 Bft) N-NW 330 0 min 0 W/m 10,8 C 3,8 C 25,8 km/h (4 Bft)
01.06.2015 11:00 11,6 C 95 % 1013,5 hPa 0,0 l/m 23,0 km/h (4 Bft) N-NW 330 0 min 0 W/m 10,8 C 4,5 C 23,0 km/h (4 Bft)
01.06.2015 11:15 11,6 C 95 % 1013,5 hPa 0,0 l/m 25,7 km/h (4 Bft) NW 310 0 min 0 W/m 10,8 C 3,8 C 25,7 km/h (4 Bft)
01.06.2015 11:30 11,6 C 95 % 1013,5 hPa 0,0 l/m 25,2 km/h (4 Bft) NW 320 0 min 0 W/m 10,8 C 4,0 C 25,2 km/h (4 Bft)
01.06.2015 11:44 11,6 C 95 % 1013,5 hPa 0,0 l/m 32,2 km/h (5 Bft) N-NW 330 0 min 0 W/m 10,8 C 2,5 C 32,2 km/h (5 Bft)
01.06.2015 12:00 11,6 C 95 % 1014,5 hPa 0,0 l/m 24,0 km/h (4 Bft) NW 315 0 min 0 W/m 10,8 C 4,2 C 24,0 km/h (4 Bft)
01.06.2015 12:15 11,6 C 95 % 1014,5 hPa 0,0 l/m 25,4 km/h (4 Bft) NW 325 0 min 0 W/m 10,8 C 3,9 C 25,4 km/h (4 Bft)
01.06.2015 12:30 11,6 C 95 % 1014,5 hPa 0,0 l/m 25,1 km/h (4 Bft) N-NW 335 0 min 0 W/m 10,8 C 4,0 C 25,1 km/h (4 Bft)
01.06.2015 12:44 11,6 C 95 % 1014,5 hPa 0,0 l/m 23,3 km/h (4 Bft) N-NW 330 0 min 0 W/m 10,8 C 4,4 C 23,3 km/h (4 Bft)
01.06.2015 13:00 11,6 C 95 % 1014,5 hPa 0,0 l/m 26,6 km/h (4 Bft) N-NW 340 0 min 0 W/m 10,8 C 3,6 C 26,6 km/h (4 Bft)
01.06.2015 13:15 11,6 C 95 % 1014,5 hPa 0,0 l/m 20,0 km/h (4 Bft) N-NW 335 0 min 0 W/m 10,8 C 5,4 C 20,0 km/h (4 Bft)
01.06.2015 13:30 11,6 C 95 % 1014,5 hPa 0,0 l/m 12,3 km/h (2 Bft) NW 320 0 min 0 W/m 10,8 C 8,2 C 12,3 km/h (2 Bft)
01.06.2015 13:45 11,6 C 95 % 1014,5 hPa 0,0 l/m 20,1 km/h (4 Bft) N-NW 340 0 min 0 W/m 10,8 C 5,3 C 20,1 km/h (4 Bft)
01.06.2015 14:00 11,6 C 95 % 1014,5 hPa 0,0 l/m 15,1 km/h (3 Bft) NW 320 0 min 0 W/m 10,8 C 7,0 C 15,1 km/h (3 Bft)
01.06.2015 14:15 11,6 C 95 % 1014,5 hPa 0,0 l/m 15,9 km/h (3 Bft) N-NW 330 0 min 0 W/m 10,8 C 6,7 C 15,9 km/h (3 Bft)
01.06.2015 14:29 11,6 C 95 % 1014,5 hPa 0,0 l/m 13,1 km/h (3 Bft) N-NW 330 0 min 0 W/m 10,8 C 7,9 C 13,1 km/h (3 Bft)
01.06.2015 14:45 11,6 C 95 % 1014,5 hPa 0,0 l/m 10,6 km/h (2 Bft) N-NW 330 0 min 0 W/m 10,8 C 9,0 C 10,6 km/h (2 Bft)
01.06.2015 15:00 11,6 C 95 % 1014,5 hPa 0,0 l/m 15,8 km/h (3 Bft) N-NW 330 0 min 0 W/m 10,8 C 6,8 C 15,8 km/h (3 Bft)
01.06.2015 15:15 11,6 C 95 % 1015,5 hPa 0,0 l/m 11,9 km/h (2 Bft) N-NW 335 0 min 0 W/m 10,8 C 8,4 C 11,9 km/h (2 Bft)
01.06.2015 15:30 11,6 C 95 % 1015,5 hPa 0,0 l/m 12,4 km/h (2 Bft) N-NW 330 0 min 0 W/m 10,8 C 8,2 C 12,4 km/h (2 Bft)
01.06.2015 15:45 11,6 C 95 % 1015,5 hPa 0,0 l/m 12,1 km/h (2 Bft) NW 325 0 min 0 W/m 10,8 C 8,3 C 12,1 km/h (2 Bft)
01.06.2015 16:00 11,6 C 95 % 1015,5 hPa 0,0 l/m 15,5 km/h (3 Bft) NW 325 0 min 0 W/m 10,8 C 6,9 C 15,5 km/h (3 Bft)
01.06.2015 16:14 11,6 C 95 % 1015,5 hPa 0,0 l/m 14,8 km/h (3 Bft) NW 325 0 min 0 W/m 10,8 C 7,2 C 14,8 km/h (3 Bft)
01.06.2015 16:30 11,6 C 95 % 1015,5 hPa 0,0 l/m 19,1 km/h (3 Bft) NW 320 0 min 0 W/m 10,8 C 5,6 C 19,1 km/h (3 Bft)
01.06.2015 16:45 11,6 C 95 % 1015,5 hPa 0,0 l/m 15,4 km/h (3 Bft) N-NW 340 0 min 0 W/m 10,8 C 6,9 C 15,4 km/h (3 Bft)
01.06.2015 16:59 11,6 C 95 % 1015,5 hPa 0,0 l/m 12,9 km/h (3 Bft) N-NW 330 0 min 0 W/m 10,8 C 7,9 C 12,9 km/h (3 Bft)
01.06.2015 17:15 11,6 C 95 % 1015,5 hPa 0,0 l/m 10,0 km/h (2 Bft) N-NW 335 0 min 0 W/m 10,8 C 9,4 C 10,0 km/h (2 Bft)
01.06.2015 17:30 11,6 C 95 % 1015,5 hPa 0,0 l/m 14,3 km/h (3 Bft) NW 325 0 min 0 W/m 10,8 C 7,4 C 14,3 km/h (3 Bft)
01.06.2015 17:45 11,6 C 95 % 1014,5 hPa 0,0 l/m 7,8 km/h (2 Bft) NW 305 0 min 0 W/m 10,8 C 10,7 C 7,8 km/h (2 Bft)
01.06.2015 18:00 11,6 C 95 % 1014,5 hPa 0,0 l/m 8,5 km/h (2 Bft) W-NW 290 0 min 0 W/m 10,8 C 10,2 C 8,5 km/h (2 Bft)
01.06.2015 18:15 11,6 C 95 % 1014,5 hPa 0,0 l/m 9,6 km/h (2 Bft) NW 305 0 min 0 W/m 10,8 C 9,6 C 9,6 km/h (2 Bft)
01.06.2015 18:30 11,6 C 95 % 1014,5 hPa 0,0 l/m 6,3 km/h (2 Bft) N-NO 15 0 min 0 W/m 10,8 C 11,6 C 6,3 km/h (2 Bft)
01.06.2015 18:44 11,6 C 95 % 1014,5 hPa 0,0 l/m 0,6 km/h (0 Bft) N 355 0 min 0 W/m 10,8 C 11,6 C 0,6 km/h (0 Bft)
01.06.2015 19:00 11,6 C 95 % 1014,5 hPa 0,0 l/m 0,0 km/h (0 Bft) N 350 0 min 0 W/m 10,8 C 11,6 C 0,0 km/h (0 Bft)
01.06.2015 19:15 11,6 C 95 % 1013,5 hPa 0,0 l/m 0,0 km/h (0 Bft) SW 235 0 min 0 W/m 10,8 C 11,6 C 0,0 km/h (0 Bft)
01.06.2015 19:30 11,6 C 95 % 1013,5 hPa 0,0 l/m 6,9 km/h (2 Bft) W-NW 285 0 min 0 W/m 10,8 C 11,3 C 6,9 km/h (2 Bft)
01.06.2015 19:45 11,6 C 95 % 1013,5 hPa 0,0 l/m 0,4 km/h (0 Bft) O-NO 60 0 min 0 W/m 10,8 C 11,6 C 0,4 km/h (0 Bft)
01.06.2015 20:00 11,6 C 95 % 1013,5 hPa 0,0 l/m 0,0 km/h (0 Bft) NO 50 0 min 0 W/m 10,8 C 11,6 C 0,0 km/h (0 Bft)
01.06.2015 20:15 11,6 C 95 % 1013,5 hPa 0,0 l/m 0,0 km/h (0 Bft) NO 50 0 min 0 W/m 10,8 C 11,6 C 0,0 km/h (0 Bft)
01.06.2015 20:29 11,6 C 95 % 1013,5 hPa 0,0 l/m 0,3 km/h (0 Bft) NO 50 0 min 0 W/m 10,8 C 11,6 C 0,3 km/h (0 Bft)
01.06.2015 20:45 11,6 C 95 % 1013,5 hPa 0,0 l/m 0,0 km/h (0 Bft) NO 55 0 min 0 W/m 10,8 C 11,6 C 0,0 km/h (0 Bft)
01.06.2015 21:00 11,6 C 95 % 1013,5 hPa 0,0 l/m 0,0 km/h (0 Bft) NO 50 0 min 0 W/m 10,8 C 11,6 C 0,0 km/h (0 Bft)
01.06.2015 21:15 11,6 C 95 % 1013,5 hPa 0,0 l/m 0,3 km/h (0 Bft) NO 50 0 min 0 W/m 10,8 C 11,6 C 0,3 km/h (0 Bft)
01.06.2015 21:30 11,6 C 95 % 1013,5 hPa 0,0 l/m 1,2 km/h (1 Bft) O 100 0 min 0 W/m 10,8 C 11,6 C 1,2 km/h (1 Bft)
01.06.2015 21:45 11,6 C 95 % 1013,5 hPa 0,0 l/m 3,6 km/h (1 Bft) O-SO 110 0 min 0 W/m 10,8 C 11,6 C 3,6 km/h (1 Bft)
01.06.2015 22:00 11,6 C 95 % 1012,5 hPa 0,0 l/m 0,6 km/h (0 Bft) S 180 0 min 0 W/m 10,8 C 11,6 C 0,6 km/h (0 Bft)
01.06.2015 22:14 11,6 C 95 % 1012,5 hPa 0,0 l/m 6,7 km/h (2 Bft) S 185 0 min 0 W/m 10,8 C 11,4 C 6,7 km/h (2 Bft)
01.06.2015 22:30 11,6 C 95 % 1012,5 hPa 0,0 l/m 0,7 km/h (0 Bft) S-SO 160 0 min 0 W/m 10,8 C 11,6 C 0,7 km/h (0 Bft)
01.06.2015 22:45 11,6 C 95 % 1012,5 hPa 0,0 l/m 6,6 km/h (2 Bft) S-SW 205 0 min 0 W/m 10,8 C 11,5 C 6,6 km/h (2 Bft)
01.06.2015 22:59 11,6 C 95 % 1012,5 hPa 0,0 l/m 7,0 km/h (2 Bft) S 170 0 min 0 W/m 10,8 C 11,2 C 7,0 km/h (2 Bft)
01.06.2015 23:15 11,6 C 95 % 1012,5 hPa 0,0 l/m 9,3 km/h (2 Bft) S 170 0 min 0 W/m 10,8 C 9,8 C 9,3 km/h (2 Bft)
01.06.2015 23:30 11,6 C 95 % 1012,5 hPa 0,0 l/m 9,7 km/h (2 Bft) S 185 0 min 0 W/m 10,8 C 9,5 C 9,7 km/h (2 Bft)
01.06.2015 23:44 11,6 C 95 % 1011,5 hPa 0,0 l/m 8,4 km/h (2 Bft) S-SW 210 0 min 0 W/m 10,8 C 10,3 C 8,4 km/h (2 Bft)
_ Min-Zeit 00:15 00:15 00:15 - 19:00 - - - - 00:15 02:30 19:00
Minimum _ 11,6 C 95 % 1004,5 hPa - 0,0 km/h (0 Bft) - - - - 10,8 C 1,8 C 0,0 km/h (0 Bft)
_ Max-Zeit 00:15 00:15 15:15 01:30 02:30 - - 00:15 00:15 00:15 18:30 02:30
Maximum _ 11,6 C 95 % 1015,5 hPa 0,9 l/m 36,3 km/h
N-NW (5 Bft)
- - 0 min 0 W/m 10,8 C 11,6 C 36,3 km/h
N-NW (5 Bft)
Durchschnitt _ 11,6 C 95 % 1011,8 hPa #4,2 l/m 18,7 km/h (3 Bft) N-NW - #0 min. 0 W/m 10,8 C 6,3 C 18,7 km/h (3 Bft)
copyright by Holger Just